sensor_id;sensor_type;location;lat;lon;timestamp;P1;durP1;ratioP1;P2;durP2;ratioP2
45296;SDS011;31040;51.622;10.420;2022-10-16T00:00:57;0.95;;;0.95;;
45296;SDS011;31040;51.622;10.420;2022-10-16T00:03:25;0.80;;;0.80;;
45296;SDS011;31040;51.622;10.420;2022-10-16T00:05:58;4.22;;;1.15;;
45296;SDS011;31040;51.622;10.420;2022-10-16T00:08:27;1.30;;;1.15;;
45296;SDS011;31040;51.622;10.420;2022-10-16T00:11:30;1.08;;;1.08;;
45296;SDS011;31040;51.622;10.420;2022-10-16T00:13:48;3.03;;;1.00;;
45296;SDS011;31040;51.622;10.420;2022-10-16T00:16:16;0.82;;;0.80;;
45296;SDS011;31040;51.622;10.420;2022-10-16T00:18:44;0.73;;;0.73;;
45296;SDS011;31040;51.622;10.420;2022-10-16T00:21:12;2.60;;;1.17;;
45296;SDS011;31040;51.622;10.420;2022-10-16T00:23:40;0.77;;;0.77;;
45296;SDS011;31040;51.622;10.420;2022-10-16T00:26:09;3.33;;;1.65;;
45296;SDS011;31040;51.622;10.420;2022-10-16T00:28:37;0.90;;;0.90;;
45296;SDS011;31040;51.622;10.420;2022-10-16T00:31:05;2.35;;;1.25;;
45296;SDS011;31040;51.622;10.420;2022-10-16T00:33:34;1.33;;;1.00;;
45296;SDS011;31040;51.622;10.420;2022-10-16T00:36:02;2.67;;;1.10;;
45296;SDS011;31040;51.622;10.420;2022-10-16T00:38:29;1.02;;;0.98;;
45296;SDS011;31040;51.622;10.420;2022-10-16T00:40:57;1.50;;;1.02;;
45296;SDS011;31040;51.622;10.420;2022-10-16T00:46:27;2.67;;;1.40;;
45296;SDS011;31040;51.622;10.420;2022-10-16T00:49:16;1.75;;;0.98;;
45296;SDS011;31040;51.622;10.420;2022-10-16T00:51:52;1.05;;;0.95;;
45296;SDS011;31040;51.622;10.420;2022-10-16T00:54:21;1.77;;;1.10;;
45296;SDS011;31040;51.622;10.420;2022-10-16T00:56:50;1.40;;;1.23;;
45296;SDS011;31040;51.622;10.420;2022-10-16T00:59:19;1.80;;;1.20;;
45296;SDS011;31040;51.622;10.420;2022-10-16T01:01:47;2.55;;;1.30;;
45296;SDS011;31040;51.622;10.420;2022-10-16T01:04:14;1.88;;;1.00;;
45296;SDS011;31040;51.622;10.420;2022-10-16T01:12:06;1.17;;;1.17;;
45296;SDS011;31040;51.622;10.420;2022-10-16T01:17:23;1.10;;;1.00;;
45296;SDS011;31040;51.622;10.420;2022-10-16T01:22:20;3.85;;;1.30;;
45296;SDS011;31040;51.622;10.420;2022-10-16T01:24:49;1.40;;;1.30;;
45296;SDS011;31040;51.622;10.420;2022-10-16T01:27:29;1.05;;;0.90;;
45296;SDS011;31040;51.622;10.420;2022-10-16T01:30:10;1.92;;;1.20;;
45296;SDS011;31040;51.622;10.420;2022-10-16T01:32:50;1.00;;;1.00;;
45296;SDS011;31040;51.622;10.420;2022-10-16T01:37:59;1.70;;;1.10;;
45296;SDS011;31040;51.622;10.420;2022-10-16T01:42:56;3.45;;;1.00;;
45296;SDS011;31040;51.622;10.420;2022-10-16T01:45:25;1.00;;;0.90;;
45296;SDS011;31040;51.622;10.420;2022-10-16T01:47:58;3.28;;;1.17;;
45296;SDS011;31040;51.622;10.420;2022-10-16T01:50:27;1.90;;;1.30;;
45296;SDS011;31040;51.622;10.420;2022-10-16T01:52:55;3.75;;;1.15;;
45296;SDS011;31040;51.622;10.420;2022-10-16T01:55:28;3.03;;;1.30;;
45296;SDS011;31040;51.622;10.420;2022-10-16T01:57:57;1.20;;;0.80;;
45296;SDS011;31040;51.622;10.420;2022-10-16T02:00:26;1.20;;;1.00;;
45296;SDS011;31040;51.622;10.420;2022-10-16T02:02:54;2.17;;;0.90;;
45296;SDS011;31040;51.622;10.420;2022-10-16T02:05:24;0.93;;;0.93;;
45296;SDS011;31040;51.622;10.420;2022-10-16T02:07:53;1.70;;;0.93;;
45296;SDS011;31040;51.622;10.420;2022-10-16T02:10:21;1.13;;;1.10;;
45296;SDS011;31040;51.622;10.420;2022-10-16T02:12:56;4.72;;;1.00;;
45296;SDS011;31040;51.622;10.420;2022-10-16T02:15:25;2.30;;;1.05;;
45296;SDS011;31040;51.622;10.420;2022-10-16T02:17:56;1.70;;;1.20;;
45296;SDS011;31040;51.622;10.420;2022-10-16T02:20:25;2.58;;;1.10;;
45296;SDS011;31040;51.622;10.420;2022-10-16T02:22:54;1.23;;;0.98;;
45296;SDS011;31040;51.622;10.420;2022-10-16T02:25:33;1.70;;;1.10;;
45296;SDS011;31040;51.622;10.420;2022-10-16T02:30:34;2.22;;;1.08;;
45296;SDS011;31040;51.622;10.420;2022-10-16T02:33:03;1.13;;;1.02;;
45296;SDS011;31040;51.622;10.420;2022-10-16T02:35:32;2.05;;;1.15;;
45296;SDS011;31040;51.622;10.420;2022-10-16T02:38:00;2.40;;;1.15;;
45296;SDS011;31040;51.622;10.420;2022-10-16T02:40:28;1.48;;;1.08;;
45296;SDS011;31040;51.622;10.420;2022-10-16T02:42:55;1.45;;;1.35;;
45296;SDS011;31040;51.622;10.420;2022-10-16T02:45:24;3.65;;;1.50;;
45296;SDS011;31040;51.622;10.420;2022-10-16T02:47:52;2.38;;;1.55;;
45296;SDS011;31040;51.622;10.420;2022-10-16T02:53:10;1.50;;;1.20;;
45296;SDS011;31040;51.622;10.420;2022-10-16T02:55:37;2.47;;;1.80;;
45296;SDS011;31040;51.622;10.420;2022-10-16T02:58:05;4.13;;;1.30;;
45296;SDS011;31040;51.622;10.420;2022-10-16T03:00:32;1.50;;;1.40;;
45296;SDS011;31040;51.622;10.420;2022-10-16T03:03:00;1.63;;;1.52;;
45296;SDS011;31040;51.622;10.420;2022-10-16T03:05:27;3.55;;;1.40;;
45296;SDS011;31040;51.622;10.420;2022-10-16T03:07:55;1.35;;;1.25;;
45296;SDS011;31040;51.622;10.420;2022-10-16T03:10:22;2.92;;;1.50;;
45296;SDS011;31040;51.622;10.420;2022-10-16T03:12:50;2.13;;;1.48;;
45296;SDS011;31040;51.622;10.420;2022-10-16T03:15:17;2.08;;;1.70;;
45296;SDS011;31040;51.622;10.420;2022-10-16T03:17:44;2.05;;;1.90;;
45296;SDS011;31040;51.622;10.420;2022-10-16T03:20:12;5.25;;;2.50;;
45296;SDS011;31040;51.622;10.420;2022-10-16T03:22:39;2.10;;;1.90;;
45296;SDS011;31040;51.622;10.420;2022-10-16T03:25:07;1.88;;;1.77;;
45296;SDS011;31040;51.622;10.420;2022-10-16T03:27:34;3.15;;;1.92;;
45296;SDS011;31040;51.622;10.420;2022-10-16T03:30:02;2.13;;;1.95;;
45296;SDS011;31040;51.622;10.420;2022-10-16T03:32:30;1.48;;;1.30;;
45296;SDS011;31040;51.622;10.420;2022-10-16T03:34:57;1.95;;;1.80;;
45296;SDS011;31040;51.622;10.420;2022-10-16T03:37:24;2.08;;;1.90;;
45296;SDS011;31040;51.622;10.420;2022-10-16T03:39:53;2.72;;;2.05;;
45296;SDS011;31040;51.622;10.420;2022-10-16T03:42:21;1.70;;;1.60;;
45296;SDS011;31040;51.622;10.420;2022-10-16T03:44:52;2.88;;;1.92;;
45296;SDS011;31040;51.622;10.420;2022-10-16T03:47:20;3.00;;;1.90;;
45296;SDS011;31040;51.622;10.420;2022-10-16T03:49:50;2.35;;;1.83;;
45296;SDS011;31040;51.622;10.420;2022-10-16T03:52:17;1.75;;;1.65;;
45296;SDS011;31040;51.622;10.420;2022-10-16T03:54:44;1.83;;;1.70;;
45296;SDS011;31040;51.622;10.420;2022-10-16T03:57:12;2.22;;;2.05;;
45296;SDS011;31040;51.622;10.420;2022-10-16T03:59:39;1.80;;;1.70;;
45296;SDS011;31040;51.622;10.420;2022-10-16T04:02:06;1.80;;;1.70;;
45296;SDS011;31040;51.622;10.420;2022-10-16T04:04:34;2.65;;;2.45;;
45296;SDS011;31040;51.622;10.420;2022-10-16T04:07:01;2.65;;;1.95;;
45296;SDS011;31040;51.622;10.420;2022-10-16T04:09:28;2.35;;;2.13;;
45296;SDS011;31040;51.622;10.420;2022-10-16T04:11:56;2.28;;;1.83;;
45296;SDS011;31040;51.622;10.420;2022-10-16T04:14:23;2.30;;;2.10;;
45296;SDS011;31040;51.622;10.420;2022-10-16T04:16:50;3.45;;;2.40;;
45296;SDS011;31040;51.622;10.420;2022-10-16T04:19:18;4.38;;;1.85;;
45296;SDS011;31040;51.622;10.420;2022-10-16T04:21:45;2.95;;;1.90;;
45296;SDS011;31040;51.622;10.420;2022-10-16T04:24:12;2.15;;;1.73;;
45296;SDS011;31040;51.622;10.420;2022-10-16T04:26:40;3.17;;;1.80;;
45296;SDS011;31040;51.622;10.420;2022-10-16T04:29:07;1.77;;;1.67;;
45296;SDS011;31040;51.622;10.420;2022-10-16T04:31:34;3.28;;;1.75;;
45296;SDS011;31040;51.622;10.420;2022-10-16T04:34:02;1.63;;;1.52;;
45296;SDS011;31040;51.622;10.420;2022-10-16T04:36:39;1.70;;;1.60;;
45296;SDS011;31040;51.622;10.420;2022-10-16T04:39:07;3.10;;;2.10;;
45296;SDS011;31040;51.622;10.420;2022-10-16T04:41:34;2.00;;;1.60;;
45296;SDS011;31040;51.622;10.420;2022-10-16T04:44:02;1.75;;;1.65;;
45296;SDS011;31040;51.622;10.420;2022-10-16T04:46:29;3.25;;;1.50;;
45296;SDS011;31040;51.622;10.420;2022-10-16T04:48:56;1.85;;;1.45;;
45296;SDS011;31040;51.622;10.420;2022-10-16T04:51:24;1.65;;;1.55;;
45296;SDS011;31040;51.622;10.420;2022-10-16T04:53:52;2.25;;;1.40;;
45296;SDS011;31040;51.622;10.420;2022-10-16T04:56:20;1.60;;;1.50;;
45296;SDS011;31040;51.622;10.420;2022-10-16T04:58:47;1.52;;;1.42;;
45296;SDS011;31040;51.622;10.420;2022-10-16T05:01:15;2.00;;;1.65;;
45296;SDS011;31040;51.622;10.420;2022-10-16T05:03:42;1.65;;;1.40;;
45296;SDS011;31040;51.622;10.420;2022-10-16T05:06:10;2.47;;;2.00;;
45296;SDS011;31040;51.622;10.420;2022-10-16T05:08:37;1.95;;;1.85;;
45296;SDS011;31040;51.622;10.420;2022-10-16T05:11:04;1.67;;;1.55;;
45296;SDS011;31040;51.622;10.420;2022-10-16T05:13:32;4.75;;;1.70;;
45296;SDS011;31040;51.622;10.420;2022-10-16T05:15:59;5.43;;;2.10;;
45296;SDS011;31040;51.622;10.420;2022-10-16T05:18:26;2.08;;;1.88;;
45296;SDS011;31040;51.622;10.420;2022-10-16T05:20:54;2.42;;;2.22;;
45296;SDS011;31040;51.622;10.420;2022-10-16T05:23:21;4.22;;;3.00;;
45296;SDS011;31040;51.622;10.420;2022-10-16T05:25:53;2.45;;;2.08;;
45296;SDS011;31040;51.622;10.420;2022-10-16T05:28:20;2.55;;;2.35;;
45296;SDS011;31040;51.622;10.420;2022-10-16T05:30:48;4.85;;;2.42;;
45296;SDS011;31040;51.622;10.420;2022-10-16T05:33:15;2.75;;;2.38;;
45296;SDS011;31040;51.622;10.420;2022-10-16T05:35:43;2.78;;;2.58;;
45296;SDS011;31040;51.622;10.420;2022-10-16T05:38:11;2.17;;;2.05;;
45296;SDS011;31040;51.622;10.420;2022-10-16T05:40:41;2.95;;;2.33;;
45296;SDS011;31040;51.622;10.420;2022-10-16T05:43:08;4.28;;;2.40;;
45296;SDS011;31040;51.622;10.420;2022-10-16T05:45:36;2.30;;;2.10;;
45296;SDS011;31040;51.622;10.420;2022-10-16T05:48:03;2.50;;;2.30;;
45296;SDS011;31040;51.622;10.420;2022-10-16T05:50:30;2.25;;;2.05;;
45296;SDS011;31040;51.622;10.420;2022-10-16T05:52:58;6.65;;;2.42;;
45296;SDS011;31040;51.622;10.420;2022-10-16T05:55:25;5.05;;;2.40;;
45296;SDS011;31040;51.622;10.420;2022-10-16T05:57:55;2.88;;;2.55;;
45296;SDS011;31040;51.622;10.420;2022-10-16T06:00:23;3.05;;;2.20;;
45296;SDS011;31040;51.622;10.420;2022-10-16T06:02:50;4.28;;;2.20;;
45296;SDS011;31040;51.622;10.420;2022-10-16T06:05:18;2.40;;;2.20;;
45296;SDS011;31040;51.622;10.420;2022-10-16T06:07:45;2.92;;;2.67;;
45296;SDS011;31040;51.622;10.420;2022-10-16T06:10:12;2.88;;;2.63;;
45296;SDS011;31040;51.622;10.420;2022-10-16T06:12:40;7.55;;;2.65;;
45296;SDS011;31040;51.622;10.420;2022-10-16T06:15:07;2.38;;;2.28;;
45296;SDS011;31040;51.622;10.420;2022-10-16T06:17:35;2.80;;;2.22;;
45296;SDS011;31040;51.622;10.420;2022-10-16T06:20:08;2.25;;;1.90;;
45296;SDS011;31040;51.622;10.420;2022-10-16T06:22:36;2.50;;;2.30;;
45296;SDS011;31040;51.622;10.420;2022-10-16T06:25:03;2.55;;;2.35;;
45296;SDS011;31040;51.622;10.420;2022-10-16T06:27:31;2.17;;;1.98;;
45296;SDS011;31040;51.622;10.420;2022-10-16T06:29:58;1.77;;;1.67;;
45296;SDS011;31040;51.622;10.420;2022-10-16T06:32:26;2.53;;;2.33;;
45296;SDS011;31040;51.622;10.420;2022-10-16T06:34:54;9.63;;;3.03;;
45296;SDS011;31040;51.622;10.420;2022-10-16T06:37:21;3.08;;;2.13;;
45296;SDS011;31040;51.622;10.420;2022-10-16T06:39:50;5.22;;;2.72;;
45296;SDS011;31040;51.622;10.420;2022-10-16T06:42:20;2.92;;;2.60;;
45296;SDS011;31040;51.622;10.420;2022-10-16T06:44:47;2.55;;;2.35;;
45296;SDS011;31040;51.622;10.420;2022-10-16T06:47:15;3.75;;;2.38;;
45296;SDS011;31040;51.622;10.420;2022-10-16T06:49:42;28.10;;;5.38;;
45296;SDS011;31040;51.622;10.420;2022-10-16T06:52:10;3.53;;;3.22;;
45296;SDS011;31040;51.622;10.420;2022-10-16T06:54:38;5.22;;;3.63;;
45296;SDS011;31040;51.622;10.420;2022-10-16T06:57:07;6.05;;;3.83;;
45296;SDS011;31040;51.622;10.420;2022-10-16T06:59:35;4.78;;;4.05;;
45296;SDS011;31040;51.622;10.420;2022-10-16T07:02:02;4.80;;;4.40;;
45296;SDS011;31040;51.622;10.420;2022-10-16T07:04:30;4.05;;;3.65;;
45296;SDS011;31040;51.622;10.420;2022-10-16T07:06:57;4.65;;;4.13;;
45296;SDS011;31040;51.622;10.420;2022-10-16T07:09:24;4.28;;;3.88;;
45296;SDS011;31040;51.622;10.420;2022-10-16T07:11:53;8.77;;;5.90;;
45296;SDS011;31040;51.622;10.420;2022-10-16T07:14:20;8.02;;;6.57;;
45296;SDS011;31040;51.622;10.420;2022-10-16T07:16:48;5.53;;;5.03;;
45296;SDS011;31040;51.622;10.420;2022-10-16T07:19:15;8.68;;;6.07;;
45296;SDS011;31040;51.622;10.420;2022-10-16T07:21:44;10.52;;;7.50;;
45296;SDS011;31040;51.622;10.420;2022-10-16T07:24:13;25.48;;;21.73;;
45296;SDS011;31040;51.622;10.420;2022-10-16T07:26:41;25.85;;;22.67;;
45296;SDS011;31040;51.622;10.420;2022-10-16T07:29:13;17.30;;;15.55;;
45296;SDS011;31040;51.622;10.420;2022-10-16T07:31:41;20.92;;;14.70;;
45296;SDS011;31040;51.622;10.420;2022-10-16T07:34:09;17.77;;;12.00;;
45296;SDS011;31040;51.622;10.420;2022-10-16T07:36:37;12.35;;;11.05;;
45296;SDS011;31040;51.622;10.420;2022-10-16T07:39:05;10.60;;;8.60;;
45296;SDS011;31040;51.622;10.420;2022-10-16T07:41:32;10.45;;;8.90;;
45296;SDS011;31040;51.622;10.420;2022-10-16T07:44:03;9.30;;;7.93;;
45296;SDS011;31040;51.622;10.420;2022-10-16T07:46:30;7.28;;;5.68;;
45296;SDS011;31040;51.622;10.420;2022-10-16T07:48:59;6.13;;;4.72;;
45296;SDS011;31040;51.622;10.420;2022-10-16T07:51:27;7.10;;;3.22;;
45296;SDS011;31040;51.622;10.420;2022-10-16T07:53:54;2.50;;;2.30;;
45296;SDS011;31040;51.622;10.420;2022-10-16T07:56:22;5.47;;;2.65;;
45296;SDS011;31040;51.622;10.420;2022-10-16T07:58:49;3.13;;;2.60;;
45296;SDS011;31040;51.622;10.420;2022-10-16T08:01:17;3.03;;;2.50;;
45296;SDS011;31040;51.622;10.420;2022-10-16T08:03:45;2.67;;;2.47;;
45296;SDS011;31040;51.622;10.420;2022-10-16T08:06:13;4.80;;;2.10;;
45296;SDS011;31040;51.622;10.420;2022-10-16T08:08:40;4.53;;;2.88;;
45296;SDS011;31040;51.622;10.420;2022-10-16T08:11:08;2.85;;;2.38;;
45296;SDS011;31040;51.622;10.420;2022-10-16T08:13:35;2.65;;;2.45;;
45296;SDS011;31040;51.622;10.420;2022-10-16T08:16:03;3.75;;;2.50;;
45296;SDS011;31040;51.622;10.420;2022-10-16T08:18:37;3.30;;;2.92;;
45296;SDS011;31040;51.622;10.420;2022-10-16T08:21:05;3.00;;;2.80;;
45296;SDS011;31040;51.622;10.420;2022-10-16T08:23:33;2.72;;;2.53;;
45296;SDS011;31040;51.622;10.420;2022-10-16T08:26:02;3.08;;;2.88;;
45296;SDS011;31040;51.622;10.420;2022-10-16T08:28:30;3.40;;;3.10;;
45296;SDS011;31040;51.622;10.420;2022-10-16T08:31:08;3.00;;;2.80;;
45296;SDS011;31040;51.622;10.420;2022-10-16T08:33:36;3.70;;;3.10;;
45296;SDS011;31040;51.622;10.420;2022-10-16T08:36:04;13.20;;;4.78;;
45296;SDS011;31040;51.622;10.420;2022-10-16T08:38:33;4.93;;;3.38;;
45296;SDS011;31040;51.622;10.420;2022-10-16T08:43:49;3.15;;;2.95;;
45296;SDS011;31040;51.622;10.420;2022-10-16T08:49:03;8.73;;;3.13;;
45296;SDS011;31040;51.622;10.420;2022-10-16T08:51:31;3.10;;;2.67;;
45296;SDS011;31040;51.622;10.420;2022-10-16T08:54:03;3.58;;;2.60;;
45296;SDS011;31040;51.622;10.420;2022-10-16T08:56:31;2.80;;;2.33;;
45296;SDS011;31040;51.622;10.420;2022-10-16T08:58:59;2.45;;;2.25;;
45296;SDS011;31040;51.622;10.420;2022-10-16T09:01:38;2.35;;;2.15;;
45296;SDS011;31040;51.622;10.420;2022-10-16T09:04:13;4.38;;;2.33;;
45296;SDS011;31040;51.622;10.420;2022-10-16T09:06:52;2.20;;;2.00;;
45296;SDS011;31040;51.622;10.420;2022-10-16T09:17:06;3.10;;;1.30;;
45296;SDS011;31040;51.622;10.420;2022-10-16T09:19:41;2.13;;;1.52;;
45296;SDS011;31040;51.622;10.420;2022-10-16T09:22:12;3.33;;;1.35;;
45296;SDS011;31040;51.622;10.420;2022-10-16T09:24:41;1.55;;;1.45;;
45296;SDS011;31040;51.622;10.420;2022-10-16T09:27:12;1.75;;;1.30;;
45296;SDS011;31040;51.622;10.420;2022-10-16T09:29:40;1.48;;;1.35;;
45296;SDS011;31040;51.622;10.420;2022-10-16T09:32:19;4.55;;;1.52;;
45296;SDS011;31040;51.622;10.420;2022-10-16T09:34:48;3.20;;;1.20;;
45296;SDS011;31040;51.622;10.420;2022-10-16T09:37:17;2.38;;;1.52;;
45296;SDS011;31040;51.622;10.420;2022-10-16T09:39:46;1.30;;;1.30;;
45296;SDS011;31040;51.622;10.420;2022-10-16T09:42:15;1.95;;;1.00;;
45296;SDS011;31040;51.622;10.420;2022-10-16T09:44:46;1.17;;;0.98;;
45296;SDS011;31040;51.622;10.420;2022-10-16T09:47:19;2.30;;;1.13;;
45296;SDS011;31040;51.622;10.420;2022-10-16T09:49:51;2.13;;;1.00;;
45296;SDS011;31040;51.622;10.420;2022-10-16T09:52:19;2.80;;;1.25;;
45296;SDS011;31040;51.622;10.420;2022-10-16T09:54:53;1.67;;;1.00;;
45296;SDS011;31040;51.622;10.420;2022-10-16T09:57:22;2.45;;;1.00;;
45296;SDS011;31040;51.622;10.420;2022-10-16T09:59:54;3.75;;;1.23;;
45296;SDS011;31040;51.622;10.420;2022-10-16T10:02:34;0.60;;;0.60;;
45296;SDS011;31040;51.622;10.420;2022-10-16T10:05:02;1.08;;;0.80;;
45296;SDS011;31040;51.622;10.420;2022-10-16T10:07:32;1.67;;;0.70;;
45296;SDS011;31040;51.622;10.420;2022-10-16T10:10:01;0.77;;;0.77;;
45296;SDS011;31040;51.622;10.420;2022-10-16T10:12:30;1.10;;;1.00;;
45296;SDS011;31040;51.622;10.420;2022-10-16T10:15:04;1.00;;;0.87;;
45296;SDS011;31040;51.622;10.420;2022-10-16T10:17:33;1.02;;;0.90;;
45296;SDS011;31040;51.622;10.420;2022-10-16T10:20:25;0.73;;;0.73;;
45296;SDS011;31040;51.622;10.420;2022-10-16T10:22:54;1.95;;;0.80;;
45296;SDS011;31040;51.622;10.420;2022-10-16T10:25:39;1.13;;;1.00;;
45296;SDS011;31040;51.622;10.420;2022-10-16T10:33:44;0.90;;;0.90;;
45296;SDS011;31040;51.622;10.420;2022-10-16T10:36:16;0.73;;;0.70;;
45296;SDS011;31040;51.622;10.420;2022-10-16T10:49:45;1.17;;;0.90;;
45296;SDS011;31040;51.622;10.420;2022-10-16T11:10:20;2.97;;;1.00;;
45296;SDS011;31040;51.622;10.420;2022-10-16T11:13:10;1.23;;;0.70;;
45296;SDS011;31040;51.622;10.420;2022-10-16T11:15:38;0.70;;;0.70;;
45296;SDS011;31040;51.622;10.420;2022-10-16T11:20:44;0.57;;;0.57;;
45296;SDS011;31040;51.622;10.420;2022-10-16T11:23:15;1.70;;;0.70;;
45296;SDS011;31040;51.622;10.420;2022-10-16T11:25:43;1.02;;;0.55;;
45296;SDS011;31040;51.622;10.420;2022-10-16T11:30:50;1.48;;;0.50;;
45296;SDS011;31040;51.622;10.420;2022-10-16T11:38:33;2.70;;;0.50;;
45296;SDS011;31040;51.622;10.420;2022-10-16T11:41:17;1.05;;;0.88;;
45296;SDS011;31040;51.622;10.420;2022-10-16T11:43:49;1.33;;;0.55;;
45296;SDS011;31040;51.622;10.420;2022-10-16T11:46:20;2.80;;;1.15;;
45296;SDS011;31040;51.622;10.420;2022-10-16T11:48:54;1.63;;;0.50;;
45296;SDS011;31040;51.622;10.420;2022-10-16T11:51:38;0.55;;;0.47;;
45296;SDS011;31040;51.622;10.420;2022-10-16T11:54:10;0.68;;;0.50;;
45296;SDS011;31040;51.622;10.420;2022-10-16T11:56:46;1.75;;;0.57;;
45296;SDS011;31040;51.622;10.420;2022-10-16T12:08:28;1.45;;;0.57;;
45296;SDS011;31040;51.622;10.420;2022-10-16T12:10:30;1.02;;;0.80;;
45296;SDS011;31040;51.622;10.420;2022-10-16T12:13:00;0.57;;;0.57;;
45296;SDS011;31040;51.622;10.420;2022-10-16T12:15:29;3.28;;;0.60;;
45296;SDS011;31040;51.622;10.420;2022-10-16T12:18:23;1.90;;;1.80;;
45296;SDS011;31040;51.622;10.420;2022-10-16T12:20:57;2.58;;;1.35;;
45296;SDS011;31040;51.622;10.420;2022-10-16T12:23:25;1.63;;;0.63;;
45296;SDS011;31040;51.622;10.420;2022-10-16T12:25:54;0.40;;;0.40;;
45296;SDS011;31040;51.622;10.420;2022-10-16T12:28:22;0.88;;;0.60;;
45296;SDS011;31040;51.622;10.420;2022-10-16T12:33:30;0.30;;;0.30;;
45296;SDS011;31040;51.622;10.420;2022-10-16T12:35:59;1.38;;;0.65;;
45296;SDS011;31040;51.622;10.420;2022-10-16T12:46:00;0.90;;;0.50;;
45296;SDS011;31040;51.622;10.420;2022-10-16T12:48:27;0.88;;;0.40;;
45296;SDS011;31040;51.622;10.420;2022-10-16T12:54:04;0.55;;;0.50;;
45296;SDS011;31040;51.622;10.420;2022-10-16T13:02:00;0.98;;;0.60;;
45296;SDS011;31040;51.622;10.420;2022-10-16T13:09:58;0.32;;;0.32;;
45296;SDS011;31040;51.622;10.420;2022-10-16T13:17:32;0.70;;;0.70;;
45296;SDS011;31040;51.622;10.420;2022-10-16T13:20:15;0.95;;;0.40;;
45296;SDS011;31040;51.622;10.420;2022-10-16T13:22:48;1.95;;;0.50;;
45296;SDS011;31040;51.622;10.420;2022-10-16T13:27:57;0.30;;;0.30;;
45296;SDS011;31040;51.622;10.420;2022-10-16T13:30:27;1.15;;;0.50;;
45296;SDS011;31040;51.622;10.420;2022-10-16T13:33:03;0.60;;;0.43;;
45296;SDS011;31040;51.622;10.420;2022-10-16T13:35:37;2.35;;;0.57;;
45296;SDS011;31040;51.622;10.420;2022-10-16T13:38:15;0.30;;;0.30;;
45296;SDS011;31040;51.622;10.420;2022-10-16T13:43:19;0.50;;;0.50;;
45296;SDS011;31040;51.622;10.420;2022-10-16T13:45:58;0.70;;;0.50;;
45296;SDS011;31040;51.622;10.420;2022-10-16T13:48:26;0.50;;;0.50;;
45296;SDS011;31040;51.622;10.420;2022-10-16T13:51:04;1.30;;;0.60;;
45296;SDS011;31040;51.622;10.420;2022-10-16T13:53:33;2.13;;;0.70;;
45296;SDS011;31040;51.622;10.420;2022-10-16T13:56:04;1.08;;;0.80;;
45296;SDS011;31040;51.622;10.420;2022-10-16T13:58:32;0.77;;;0.55;;
45296;SDS011;31040;51.622;10.420;2022-10-16T14:01:04;5.15;;;0.80;;
45296;SDS011;31040;51.622;10.420;2022-10-16T14:03:32;0.30;;;0.30;;
45296;SDS011;31040;51.622;10.420;2022-10-16T14:06:02;0.28;;;0.20;;
45296;SDS011;31040;51.622;10.420;2022-10-16T14:08:30;1.77;;;0.50;;
45296;SDS011;31040;51.622;10.420;2022-10-16T14:10:59;0.45;;;0.30;;
45296;SDS011;31040;51.622;10.420;2022-10-16T14:13:39;1.48;;;0.60;;
45296;SDS011;31040;51.622;10.420;2022-10-16T14:16:10;2.15;;;0.57;;
45296;SDS011;31040;51.622;10.420;2022-10-16T14:18:44;0.70;;;0.50;;
45296;SDS011;31040;51.622;10.420;2022-10-16T14:21:13;3.70;;;0.52;;
45296;SDS011;31040;51.622;10.420;2022-10-16T14:23:42;2.05;;;0.70;;
45296;SDS011;31040;51.622;10.420;2022-10-16T14:28:39;1.05;;;0.50;;
45296;SDS011;31040;51.622;10.420;2022-10-16T14:31:24;0.50;;;0.40;;
45296;SDS011;31040;51.622;10.420;2022-10-16T14:33:52;1.87;;;0.50;;
45296;SDS011;31040;51.622;10.420;2022-10-16T14:36:19;0.55;;;0.40;;
45296;SDS011;31040;51.622;10.420;2022-10-16T14:38:49;1.17;;;0.50;;
45296;SDS011;31040;51.622;10.420;2022-10-16T14:41:22;1.67;;;0.32;;
45296;SDS011;31040;51.622;10.420;2022-10-16T14:43:51;2.28;;;0.50;;
45296;SDS011;31040;51.622;10.420;2022-10-16T14:46:20;0.98;;;0.32;;
45296;SDS011;31040;51.622;10.420;2022-10-16T14:48:53;0.75;;;0.40;;
45296;SDS011;31040;51.622;10.420;2022-10-16T14:51:22;5.03;;;0.80;;
45296;SDS011;31040;51.622;10.420;2022-10-16T14:53:50;0.70;;;0.40;;
45296;SDS011;31040;51.622;10.420;2022-10-16T14:56:25;2.88;;;0.50;;
45296;SDS011;31040;51.622;10.420;2022-10-16T14:58:57;1.88;;;0.45;;
45296;SDS011;31040;51.622;10.420;2022-10-16T15:01:24;1.83;;;0.70;;
45296;SDS011;31040;51.622;10.420;2022-10-16T15:03:52;1.42;;;0.80;;
45296;SDS011;31040;51.622;10.420;2022-10-16T15:06:21;2.53;;;0.85;;
45296;SDS011;31040;51.622;10.420;2022-10-16T15:08:52;2.22;;;0.60;;
45296;SDS011;31040;51.622;10.420;2022-10-16T15:11:19;0.88;;;0.88;;
45296;SDS011;31040;51.622;10.420;2022-10-16T15:13:47;1.92;;;0.40;;
45296;SDS011;31040;51.622;10.420;2022-10-16T15:16:15;5.78;;;0.77;;
45296;SDS011;31040;51.622;10.420;2022-10-16T15:18:43;7.63;;;1.00;;
45296;SDS011;31040;51.622;10.420;2022-10-16T15:21:16;0.32;;;0.32;;
45296;SDS011;31040;51.622;10.420;2022-10-16T15:23:48;0.65;;;0.40;;
45296;SDS011;31040;51.622;10.420;2022-10-16T15:26:17;0.98;;;0.88;;
45296;SDS011;31040;51.622;10.420;2022-10-16T15:28:44;1.38;;;0.50;;
45296;SDS011;31040;51.622;10.420;2022-10-16T15:31:11;1.13;;;0.40;;
45296;SDS011;31040;51.622;10.420;2022-10-16T15:33:39;5.13;;;0.85;;
45296;SDS011;31040;51.622;10.420;2022-10-16T15:36:07;0.80;;;0.80;;
45296;SDS011;31040;51.622;10.420;2022-10-16T15:38:34;0.45;;;0.45;;
45296;SDS011;31040;51.622;10.420;2022-10-16T15:41:02;0.63;;;0.50;;
45296;SDS011;31040;51.622;10.420;2022-10-16T15:43:29;2.00;;;0.60;;
45296;SDS011;31040;51.622;10.420;2022-10-16T15:48:28;1.15;;;0.70;;
45296;SDS011;31040;51.622;10.420;2022-10-16T15:50:55;2.35;;;0.40;;
45296;SDS011;31040;51.622;10.420;2022-10-16T15:53:23;6.85;;;0.95;;
45296;SDS011;31040;51.622;10.420;2022-10-16T15:55:50;2.78;;;0.55;;
45296;SDS011;31040;51.622;10.420;2022-10-16T15:58:21;2.10;;;0.80;;
45296;SDS011;31040;51.622;10.420;2022-10-16T16:00:58;3.95;;;1.00;;
45296;SDS011;31040;51.622;10.420;2022-10-16T16:03:30;5.05;;;0.70;;
45296;SDS011;31040;51.622;10.420;2022-10-16T16:05:58;2.42;;;0.90;;
45296;SDS011;31040;51.622;10.420;2022-10-16T16:08:25;2.10;;;0.60;;
45296;SDS011;31040;51.622;10.420;2022-10-16T16:11:02;1.70;;;0.73;;
45296;SDS011;31040;51.622;10.420;2022-10-16T16:13:30;1.50;;;0.85;;
45296;SDS011;31040;51.622;10.420;2022-10-16T16:15:57;1.02;;;0.70;;
45296;SDS011;31040;51.622;10.420;2022-10-16T16:18:25;3.30;;;1.10;;
45296;SDS011;31040;51.622;10.420;2022-10-16T16:20:52;7.47;;;1.40;;
45296;SDS011;31040;51.622;10.420;2022-10-16T16:23:20;2.45;;;0.63;;
45296;SDS011;31040;51.622;10.420;2022-10-16T16:28:34;4.43;;;0.98;;
45296;SDS011;31040;51.622;10.420;2022-10-16T16:31:02;3.50;;;1.02;;
45296;SDS011;31040;51.622;10.420;2022-10-16T16:33:29;3.78;;;0.80;;
45296;SDS011;31040;51.622;10.420;2022-10-16T16:36:01;5.00;;;1.05;;
45296;SDS011;31040;51.622;10.420;2022-10-16T16:38:29;3.00;;;0.80;;
45296;SDS011;31040;51.622;10.420;2022-10-16T16:40:58;2.25;;;0.70;;
45296;SDS011;31040;51.622;10.420;2022-10-16T16:43:26;0.85;;;0.60;;
45296;SDS011;31040;51.622;10.420;2022-10-16T16:45:54;2.95;;;0.88;;
45296;SDS011;31040;51.622;10.420;2022-10-16T16:48:21;2.50;;;0.60;;
45296;SDS011;31040;51.622;10.420;2022-10-16T16:50:49;1.98;;;1.25;;
45296;SDS011;31040;51.622;10.420;2022-10-16T16:53:16;5.28;;;1.45;;
45296;SDS011;31040;51.622;10.420;2022-10-16T16:55:44;1.27;;;0.80;;
45296;SDS011;31040;51.622;10.420;2022-10-16T16:58:11;1.42;;;0.82;;
45296;SDS011;31040;51.622;10.420;2022-10-16T17:00:44;6.13;;;0.95;;